sensor_id;sensor_type;location;lat;lon;timestamp;P1;durP1;ratioP1;P2;durP2;ratioP2
66012;SDS011;52783;50.502;8.190;2023-03-23T00:01:14;7.28;;;1.65;;
66012;SDS011;52783;50.502;8.190;2023-03-23T00:03:45;2.30;;;1.27;;
66012;SDS011;52783;50.502;8.190;2023-03-23T00:06:15;2.92;;;1.50;;
66012;SDS011;52783;50.502;8.190;2023-03-23T00:08:42;2.75;;;1.40;;
66012;SDS011;52783;50.502;8.190;2023-03-23T00:11:12;2.35;;;1.45;;
66012;SDS011;52783;50.502;8.190;2023-03-23T00:13:44;2.67;;;1.73;;
66012;SDS011;52783;50.502;8.190;2023-03-23T00:16:11;4.18;;;1.58;;
66012;SDS011;52783;50.502;8.190;2023-03-23T00:18:44;3.63;;;1.70;;
66012;SDS011;52783;50.502;8.190;2023-03-23T00:21:10;3.28;;;1.80;;
66012;SDS011;52783;50.502;8.190;2023-03-23T00:23:35;2.72;;;1.40;;
66012;SDS011;52783;50.502;8.190;2023-03-23T00:26:01;2.50;;;1.27;;
66012;SDS011;52783;50.502;8.190;2023-03-23T00:28:26;1.50;;;1.27;;
66012;SDS011;52783;50.502;8.190;2023-03-23T00:33:22;2.95;;;1.48;;
66012;SDS011;52783;50.502;8.190;2023-03-23T00:35:49;4.93;;;1.40;;
66012;SDS011;52783;50.502;8.190;2023-03-23T00:38:17;1.83;;;1.25;;
66012;SDS011;52783;50.502;8.190;2023-03-23T00:40:47;1.70;;;1.25;;
66012;SDS011;52783;50.502;8.190;2023-03-23T00:43:16;2.08;;;1.27;;
66012;SDS011;52783;50.502;8.190;2023-03-23T00:45:43;1.40;;;1.35;;
66012;SDS011;52783;50.502;8.190;2023-03-23T00:48:20;2.13;;;1.40;;
66012;SDS011;52783;50.502;8.190;2023-03-23T00:53:16;1.92;;;1.23;;
66012;SDS011;52783;50.502;8.190;2023-03-23T00:55:43;2.50;;;1.48;;
66012;SDS011;52783;50.502;8.190;2023-03-23T00:58:10;1.52;;;1.40;;
66012;SDS011;52783;50.502;8.190;2023-03-23T01:00:36;2.55;;;1.30;;
66012;SDS011;52783;50.502;8.190;2023-03-23T01:03:02;1.52;;;1.38;;
66012;SDS011;52783;50.502;8.190;2023-03-23T01:05:28;1.70;;;1.17;;
66012;SDS011;52783;50.502;8.190;2023-03-23T01:07:57;1.77;;;1.30;;
66012;SDS011;52783;50.502;8.190;2023-03-23T01:10:23;1.65;;;1.55;;
66012;SDS011;52783;50.502;8.190;2023-03-23T01:12:49;1.30;;;1.20;;
66012;SDS011;52783;50.502;8.190;2023-03-23T01:15:16;2.22;;;1.30;;
66012;SDS011;52783;50.502;8.190;2023-03-23T01:17:43;3.03;;;1.40;;
66012;SDS011;52783;50.502;8.190;2023-03-23T01:20:09;1.60;;;1.38;;
66012;SDS011;52783;50.502;8.190;2023-03-23T01:22:40;3.55;;;1.83;;
66012;SDS011;52783;50.502;8.190;2023-03-23T01:25:07;2.10;;;1.48;;
66012;SDS011;52783;50.502;8.190;2023-03-23T01:27:38;1.60;;;1.30;;
66012;SDS011;52783;50.502;8.190;2023-03-23T01:30:05;1.83;;;1.40;;
66012;SDS011;52783;50.502;8.190;2023-03-23T01:32:32;7.07;;;1.50;;
66012;SDS011;52783;50.502;8.190;2023-03-23T01:34:58;1.33;;;1.17;;
66012;SDS011;52783;50.502;8.190;2023-03-23T01:37:24;2.72;;;1.58;;
66012;SDS011;52783;50.502;8.190;2023-03-23T01:39:52;1.67;;;1.50;;
66012;SDS011;52783;50.502;8.190;2023-03-23T01:42:20;2.25;;;1.40;;
66012;SDS011;52783;50.502;8.190;2023-03-23T01:47:15;1.38;;;1.27;;
66012;SDS011;52783;50.502;8.190;2023-03-23T01:49:44;2.60;;;1.20;;
66012;SDS011;52783;50.502;8.190;2023-03-23T01:52:20;2.45;;;1.48;;
66012;SDS011;52783;50.502;8.190;2023-03-23T01:54:51;1.77;;;1.20;;
66012;SDS011;52783;50.502;8.190;2023-03-23T01:57:21;1.88;;;1.15;;
66012;SDS011;52783;50.502;8.190;2023-03-23T01:59:49;1.67;;;1.25;;
66012;SDS011;52783;50.502;8.190;2023-03-23T02:02:17;1.70;;;1.40;;
66012;SDS011;52783;50.502;8.190;2023-03-23T02:04:44;1.17;;;1.13;;
66012;SDS011;52783;50.502;8.190;2023-03-23T02:07:10;2.92;;;1.48;;
66012;SDS011;52783;50.502;8.190;2023-03-23T02:09:38;4.75;;;1.58;;
66012;SDS011;52783;50.502;8.190;2023-03-23T02:12:04;1.42;;;1.20;;
66012;SDS011;52783;50.502;8.190;2023-03-23T02:14:30;4.20;;;1.65;;
66012;SDS011;52783;50.502;8.190;2023-03-23T02:17:10;1.63;;;1.33;;
66012;SDS011;52783;50.502;8.190;2023-03-23T02:20:07;1.30;;;1.20;;
66012;SDS011;52783;50.502;8.190;2023-03-23T02:23:24;4.57;;;1.55;;
66012;SDS011;52783;50.502;8.190;2023-03-23T02:26:07;2.75;;;1.45;;
66012;SDS011;52783;50.502;8.190;2023-03-23T02:32:01;2.67;;;1.40;;
66012;SDS011;52783;50.502;8.190;2023-03-23T02:37:20;3.83;;;1.50;;
66012;SDS011;52783;50.502;8.190;2023-03-23T02:39:52;2.95;;;1.67;;
66012;SDS011;52783;50.502;8.190;2023-03-23T02:42:23;1.60;;;1.50;;
66012;SDS011;52783;50.502;8.190;2023-03-23T02:44:53;2.00;;;1.48;;
66012;SDS011;52783;50.502;8.190;2023-03-23T02:47:22;7.30;;;1.50;;
66012;SDS011;52783;50.502;8.190;2023-03-23T02:49:52;3.88;;;1.40;;
66012;SDS011;52783;50.502;8.190;2023-03-23T02:52:20;1.23;;;1.13;;
66012;SDS011;52783;50.502;8.190;2023-03-23T02:54:49;1.73;;;1.60;;
66012;SDS011;52783;50.502;8.190;2023-03-23T02:57:16;2.17;;;1.23;;
66012;SDS011;52783;50.502;8.190;2023-03-23T02:59:42;2.30;;;1.58;;
66012;SDS011;52783;50.502;8.190;2023-03-23T03:02:29;3.03;;;1.42;;
66012;SDS011;52783;50.502;8.190;2023-03-23T03:10:33;2.97;;;1.45;;
66012;SDS011;52783;50.502;8.190;2023-03-23T03:13:07;1.55;;;1.45;;
66012;SDS011;52783;50.502;8.190;2023-03-23T03:15:54;1.52;;;1.42;;
66012;SDS011;52783;50.502;8.190;2023-03-23T03:18:31;2.85;;;1.25;;
66012;SDS011;52783;50.502;8.190;2023-03-23T03:21:04;1.17;;;1.17;;
66012;SDS011;52783;50.502;8.190;2023-03-23T03:23:35;2.83;;;1.40;;
66012;SDS011;52783;50.502;8.190;2023-03-23T03:26:03;1.60;;;1.27;;
66012;SDS011;52783;50.502;8.190;2023-03-23T03:28:31;3.22;;;1.23;;
66012;SDS011;52783;50.502;8.190;2023-03-23T03:30:57;4.30;;;1.77;;
66012;SDS011;52783;50.502;8.190;2023-03-23T03:33:26;1.52;;;1.42;;
66012;SDS011;52783;50.502;8.190;2023-03-23T03:35:56;4.00;;;1.77;;
66012;SDS011;52783;50.502;8.190;2023-03-23T03:38:24;4.15;;;1.60;;
66012;SDS011;52783;50.502;8.190;2023-03-23T03:40:50;1.67;;;1.50;;
66012;SDS011;52783;50.502;8.190;2023-03-23T03:43:16;2.65;;;1.60;;
66012;SDS011;52783;50.502;8.190;2023-03-23T03:45:42;2.35;;;1.52;;
66012;SDS011;52783;50.502;8.190;2023-03-23T03:48:09;1.45;;;1.30;;
66012;SDS011;52783;50.502;8.190;2023-03-23T03:50:34;3.63;;;1.80;;
66012;SDS011;52783;50.502;8.190;2023-03-23T03:53:00;1.90;;;1.70;;
66012;SDS011;52783;50.502;8.190;2023-03-23T03:55:26;8.18;;;1.90;;
66012;SDS011;52783;50.502;8.190;2023-03-23T03:57:52;2.30;;;1.77;;
66012;SDS011;52783;50.502;8.190;2023-03-23T04:00:20;3.25;;;1.40;;
66012;SDS011;52783;50.502;8.190;2023-03-23T04:02:47;1.88;;;1.60;;
66012;SDS011;52783;50.502;8.190;2023-03-23T04:05:18;3.60;;;1.60;;
66012;SDS011;52783;50.502;8.190;2023-03-23T04:07:45;1.90;;;1.63;;
66012;SDS011;52783;50.502;8.190;2023-03-23T04:10:16;2.13;;;1.75;;
66012;SDS011;52783;50.502;8.190;2023-03-23T04:12:44;3.72;;;1.40;;
66012;SDS011;52783;50.502;8.190;2023-03-23T04:15:10;2.08;;;1.77;;
66012;SDS011;52783;50.502;8.190;2023-03-23T04:17:36;6.65;;;1.65;;
66012;SDS011;52783;50.502;8.190;2023-03-23T04:20:02;2.08;;;1.52;;
66012;SDS011;52783;50.502;8.190;2023-03-23T04:22:33;1.67;;;1.55;;
66012;SDS011;52783;50.502;8.190;2023-03-23T04:24:59;2.08;;;1.58;;
66012;SDS011;52783;50.502;8.190;2023-03-23T04:27:27;2.88;;;1.42;;
66012;SDS011;52783;50.502;8.190;2023-03-23T04:29:55;1.92;;;1.70;;
66012;SDS011;52783;50.502;8.190;2023-03-23T04:32:22;1.52;;;1.42;;
66012;SDS011;52783;50.502;8.190;2023-03-23T04:34:49;2.10;;;1.60;;
66012;SDS011;52783;50.502;8.190;2023-03-23T04:37:15;3.30;;;2.00;;
66012;SDS011;52783;50.502;8.190;2023-03-23T04:39:40;3.90;;;1.90;;
66012;SDS011;52783;50.502;8.190;2023-03-23T04:42:10;3.65;;;1.92;;
66012;SDS011;52783;50.502;8.190;2023-03-23T04:44:36;3.45;;;1.80;;
66012;SDS011;52783;50.502;8.190;2023-03-23T04:47:01;2.85;;;1.90;;
66012;SDS011;52783;50.502;8.190;2023-03-23T04:49:27;4.75;;;1.80;;
66012;SDS011;52783;50.502;8.190;2023-03-23T04:51:54;5.18;;;1.85;;
66012;SDS011;52783;50.502;8.190;2023-03-23T04:54:21;2.20;;;2.00;;
66012;SDS011;52783;50.502;8.190;2023-03-23T04:56:47;3.10;;;1.75;;
66012;SDS011;52783;50.502;8.190;2023-03-23T04:59:12;2.33;;;1.60;;
66012;SDS011;52783;50.502;8.190;2023-03-23T05:01:40;2.85;;;1.50;;
66012;SDS011;52783;50.502;8.190;2023-03-23T05:04:10;6.20;;;2.13;;
66012;SDS011;52783;50.502;8.190;2023-03-23T05:06:41;3.50;;;1.92;;
66012;SDS011;52783;50.502;8.190;2023-03-23T05:09:10;3.85;;;1.92;;
66012;SDS011;52783;50.502;8.190;2023-03-23T05:11:35;2.60;;;1.85;;
66012;SDS011;52783;50.502;8.190;2023-03-23T05:14:03;1.55;;;1.42;;
66012;SDS011;52783;50.502;8.190;2023-03-23T05:18:59;1.67;;;1.48;;
66012;SDS011;52783;50.502;8.190;2023-03-23T05:21:25;2.53;;;1.70;;
66012;SDS011;52783;50.502;8.190;2023-03-23T05:23:51;3.75;;;1.30;;
66012;SDS011;52783;50.502;8.190;2023-03-23T05:26:19;2.90;;;1.80;;
66012;SDS011;52783;50.502;8.190;2023-03-23T05:28:46;1.80;;;1.70;;
66012;SDS011;52783;50.502;8.190;2023-03-23T05:31:13;3.38;;;1.98;;
66012;SDS011;52783;50.502;8.190;2023-03-23T05:33:38;4.78;;;1.80;;
66012;SDS011;52783;50.502;8.190;2023-03-23T05:36:04;2.63;;;1.70;;
66012;SDS011;52783;50.502;8.190;2023-03-23T05:38:31;4.13;;;2.00;;
66012;SDS011;52783;50.502;8.190;2023-03-23T05:41:00;3.67;;;1.85;;
66012;SDS011;52783;50.502;8.190;2023-03-23T05:43:26;5.72;;;2.05;;
66012;SDS011;52783;50.502;8.190;2023-03-23T05:45:51;3.80;;;1.83;;
66012;SDS011;52783;50.502;8.190;2023-03-23T05:48:17;1.95;;;1.70;;
66012;SDS011;52783;50.502;8.190;2023-03-23T05:50:43;2.60;;;1.70;;
66012;SDS011;52783;50.502;8.190;2023-03-23T05:53:09;1.50;;;1.40;;
66012;SDS011;52783;50.502;8.190;2023-03-23T05:55:35;3.40;;;2.10;;
66012;SDS011;52783;50.502;8.190;2023-03-23T05:58:00;3.85;;;1.77;;
66012;SDS011;52783;50.502;8.190;2023-03-23T06:00:26;5.28;;;2.40;;
66012;SDS011;52783;50.502;8.190;2023-03-23T06:02:55;1.70;;;1.60;;
66012;SDS011;52783;50.502;8.190;2023-03-23T06:05:21;2.10;;;1.77;;
66012;SDS011;52783;50.502;8.190;2023-03-23T06:07:47;2.00;;;1.90;;
66012;SDS011;52783;50.502;8.190;2023-03-23T06:10:13;4.50;;;2.10;;
66012;SDS011;52783;50.502;8.190;2023-03-23T06:12:39;5.43;;;2.00;;
66012;SDS011;52783;50.502;8.190;2023-03-23T06:15:05;3.47;;;1.88;;
66012;SDS011;52783;50.502;8.190;2023-03-23T06:17:32;2.20;;;1.80;;
66012;SDS011;52783;50.502;8.190;2023-03-23T06:19:58;2.08;;;1.75;;
66012;SDS011;52783;50.502;8.190;2023-03-23T06:22:24;4.05;;;2.13;;
66012;SDS011;52783;50.502;8.190;2023-03-23T06:24:51;4.68;;;2.13;;
66012;SDS011;52783;50.502;8.190;2023-03-23T06:27:16;4.32;;;2.40;;
66012;SDS011;52783;50.502;8.190;2023-03-23T06:29:42;2.95;;;1.80;;
66012;SDS011;52783;50.502;8.190;2023-03-23T06:32:09;2.53;;;2.10;;
66012;SDS011;52783;50.502;8.190;2023-03-23T06:34:36;1.90;;;1.80;;
66012;SDS011;52783;50.502;8.190;2023-03-23T06:37:02;4.53;;;1.83;;
66012;SDS011;52783;50.502;8.190;2023-03-23T06:39:28;2.80;;;2.03;;
66012;SDS011;52783;50.502;8.190;2023-03-23T06:41:53;2.10;;;1.83;;
66012;SDS011;52783;50.502;8.190;2023-03-23T06:44:19;5.30;;;2.38;;
66012;SDS011;52783;50.502;8.190;2023-03-23T06:46:45;2.63;;;1.88;;
66012;SDS011;52783;50.502;8.190;2023-03-23T06:49:10;1.85;;;1.60;;
66012;SDS011;52783;50.502;8.190;2023-03-23T06:51:36;3.90;;;2.20;;
66012;SDS011;52783;50.502;8.190;2023-03-23T06:54:02;2.55;;;1.75;;
66012;SDS011;52783;50.502;8.190;2023-03-23T06:56:30;2.05;;;1.90;;
66012;SDS011;52783;50.502;8.190;2023-03-23T06:58:56;3.35;;;1.70;;
66012;SDS011;52783;50.502;8.190;2023-03-23T07:01:21;3.65;;;1.77;;
66012;SDS011;52783;50.502;8.190;2023-03-23T07:03:47;2.10;;;1.90;;
66012;SDS011;52783;50.502;8.190;2023-03-23T07:06:13;4.30;;;1.92;;
66012;SDS011;52783;50.502;8.190;2023-03-23T07:08:40;3.03;;;1.73;;
66012;SDS011;52783;50.502;8.190;2023-03-23T07:11:05;3.97;;;1.73;;
66012;SDS011;52783;50.502;8.190;2023-03-23T07:13:31;3.45;;;1.70;;
66012;SDS011;52783;50.502;8.190;2023-03-23T07:15:57;5.47;;;2.08;;
66012;SDS011;52783;50.502;8.190;2023-03-23T07:18:23;2.05;;;1.77;;
66012;SDS011;52783;50.502;8.190;2023-03-23T07:20:49;1.70;;;1.60;;
66012;SDS011;52783;50.502;8.190;2023-03-23T07:23:16;4.28;;;1.73;;
66012;SDS011;52783;50.502;8.190;2023-03-23T07:25:42;3.20;;;1.52;;
66012;SDS011;52783;50.502;8.190;2023-03-23T07:28:08;8.70;;;4.22;;
66012;SDS011;52783;50.502;8.190;2023-03-23T07:30:34;2.50;;;2.30;;
66012;SDS011;52783;50.502;8.190;2023-03-23T07:33:03;2.30;;;2.10;;
66012;SDS011;52783;50.502;8.190;2023-03-23T07:35:33;2.30;;;1.70;;
66012;SDS011;52783;50.502;8.190;2023-03-23T07:37:59;2.55;;;1.48;;
66012;SDS011;52783;50.502;8.190;2023-03-23T07:40:25;2.60;;;2.15;;
66012;SDS011;52783;50.502;8.190;2023-03-23T07:42:52;4.55;;;2.10;;
66012;SDS011;52783;50.502;8.190;2023-03-23T07:45:20;5.38;;;2.67;;
66012;SDS011;52783;50.502;8.190;2023-03-23T07:47:46;14.43;;;7.38;;
66012;SDS011;52783;50.502;8.190;2023-03-23T07:50:12;5.38;;;2.90;;
66012;SDS011;52783;50.502;8.190;2023-03-23T07:52:38;2.30;;;1.63;;
66012;SDS011;52783;50.502;8.190;2023-03-23T07:55:06;4.03;;;1.80;;
66012;SDS011;52783;50.502;8.190;2023-03-23T07:57:33;1.85;;;1.75;;
66012;SDS011;52783;50.502;8.190;2023-03-23T07:59:59;2.63;;;1.92;;
66012;SDS011;52783;50.502;8.190;2023-03-23T08:02:25;4.22;;;1.63;;
66012;SDS011;52783;50.502;8.190;2023-03-23T08:04:51;3.65;;;2.15;;
66012;SDS011;52783;50.502;8.190;2023-03-23T08:07:18;3.00;;;1.45;;
66012;SDS011;52783;50.502;8.190;2023-03-23T08:09:45;5.07;;;1.85;;
66012;SDS011;52783;50.502;8.190;2023-03-23T08:12:11;4.38;;;1.73;;
66012;SDS011;52783;50.502;8.190;2023-03-23T08:14:37;2.63;;;1.67;;
66012;SDS011;52783;50.502;8.190;2023-03-23T08:17:03;2.92;;;1.80;;
66012;SDS011;52783;50.502;8.190;2023-03-23T08:19:28;1.85;;;1.52;;
66012;SDS011;52783;50.502;8.190;2023-03-23T08:21:54;3.42;;;1.80;;
66012;SDS011;52783;50.502;8.190;2023-03-23T08:24:19;4.68;;;1.80;;
66012;SDS011;52783;50.502;8.190;2023-03-23T08:26:45;5.18;;;1.92;;
66012;SDS011;52783;50.502;8.190;2023-03-23T08:29:11;3.90;;;2.45;;
66012;SDS011;52783;50.502;8.190;2023-03-23T08:31:37;1.70;;;1.60;;
66012;SDS011;52783;50.502;8.190;2023-03-23T08:34:04;4.65;;;1.65;;
66012;SDS011;52783;50.502;8.190;2023-03-23T08:36:30;3.92;;;1.77;;
66012;SDS011;52783;50.502;8.190;2023-03-23T08:38:57;4.40;;;1.75;;
66012;SDS011;52783;50.502;8.190;2023-03-23T08:41:23;3.67;;;1.63;;
66012;SDS011;52783;50.502;8.190;2023-03-23T08:43:48;5.25;;;1.80;;
66012;SDS011;52783;50.502;8.190;2023-03-23T08:46:15;6.28;;;1.98;;
66012;SDS011;52783;50.502;8.190;2023-03-23T08:48:40;3.75;;;1.70;;
66012;SDS011;52783;50.502;8.190;2023-03-23T08:51:06;3.92;;;1.60;;
66012;SDS011;52783;50.502;8.190;2023-03-23T08:53:32;4.63;;;1.83;;
66012;SDS011;52783;50.502;8.190;2023-03-23T08:56:08;4.05;;;1.20;;
66012;SDS011;52783;50.502;8.190;2023-03-23T08:58:36;3.17;;;1.60;;
66012;SDS011;52783;50.502;8.190;2023-03-23T09:01:03;1.38;;;1.20;;
66012;SDS011;52783;50.502;8.190;2023-03-23T09:03:33;2.22;;;1.45;;
66012;SDS011;52783;50.502;8.190;2023-03-23T09:06:00;1.80;;;1.63;;
66012;SDS011;52783;50.502;8.190;2023-03-23T09:08:27;4.03;;;1.55;;
66012;SDS011;52783;50.502;8.190;2023-03-23T09:10:54;1.63;;;1.52;;
66012;SDS011;52783;50.502;8.190;2023-03-23T09:13:23;4.18;;;1.45;;
66012;SDS011;52783;50.502;8.190;2023-03-23T09:15:49;3.00;;;1.42;;
66012;SDS011;52783;50.502;8.190;2023-03-23T09:18:15;1.88;;;1.30;;
66012;SDS011;52783;50.502;8.190;2023-03-23T09:20:40;2.67;;;1.33;;
66012;SDS011;52783;50.502;8.190;2023-03-23T09:23:07;1.48;;;1.38;;
66012;SDS011;52783;50.502;8.190;2023-03-23T09:25:33;2.20;;;1.52;;
66012;SDS011;52783;50.502;8.190;2023-03-23T09:27:58;2.17;;;1.38;;
66012;SDS011;52783;50.502;8.190;2023-03-23T09:30:25;2.20;;;1.27;;
66012;SDS011;52783;50.502;8.190;2023-03-23T09:32:52;1.90;;;1.38;;
66012;SDS011;52783;50.502;8.190;2023-03-23T09:35:19;1.92;;;1.58;;
66012;SDS011;52783;50.502;8.190;2023-03-23T09:37:47;6.43;;;1.65;;
66012;SDS011;52783;50.502;8.190;2023-03-23T09:40:16;2.17;;;1.60;;
66012;SDS011;52783;50.502;8.190;2023-03-23T09:48:54;2.50;;;1.35;;
66012;SDS011;52783;50.502;8.190;2023-03-23T09:54:42;2.05;;;1.70;;
66012;SDS011;52783;50.502;8.190;2023-03-23T09:57:01;5.22;;;1.90;;
66012;SDS011;52783;50.502;8.190;2023-03-23T10:01:59;2.53;;;2.10;;
66012;SDS011;52783;50.502;8.190;2023-03-23T10:04:47;4.50;;;2.60;;
66012;SDS011;52783;50.502;8.190;2023-03-23T10:07:18;4.88;;;2.05;;
66012;SDS011;52783;50.502;8.190;2023-03-23T10:09:46;2.25;;;1.70;;
66012;SDS011;52783;50.502;8.190;2023-03-23T10:12:32;3.05;;;1.65;;
66012;SDS011;52783;50.502;8.190;2023-03-23T10:17:45;2.90;;;1.48;;
66012;SDS011;52783;50.502;8.190;2023-03-23T10:20:25;3.28;;;1.60;;
66012;SDS011;52783;50.502;8.190;2023-03-23T10:25:23;1.42;;;1.33;;
66012;SDS011;52783;50.502;8.190;2023-03-23T10:27:59;2.03;;;1.42;;
66012;SDS011;52783;50.502;8.190;2023-03-23T10:30:37;3.67;;;1.73;;
66012;SDS011;52783;50.502;8.190;2023-03-23T10:33:14;2.88;;;1.80;;
66012;SDS011;52783;50.502;8.190;2023-03-23T10:38:47;3.90;;;2.20;;
66012;SDS011;52783;50.502;8.190;2023-03-23T10:41:18;5.05;;;2.10;;
66012;SDS011;52783;50.502;8.190;2023-03-23T10:43:46;2.83;;;1.80;;
66012;SDS011;52783;50.502;8.190;2023-03-23T10:48:50;4.85;;;1.80;;
66012;SDS011;52783;50.502;8.190;2023-03-23T10:51:19;3.63;;;1.52;;
66012;SDS011;52783;50.502;8.190;2023-03-23T10:53:55;0.90;;;0.90;;
66012;SDS011;52783;50.502;8.190;2023-03-23T10:56:27;2.80;;;1.15;;
66012;SDS011;52783;50.502;8.190;2023-03-23T10:58:54;1.30;;;1.20;;
66012;SDS011;52783;50.502;8.190;2023-03-23T11:01:28;1.58;;;1.30;;
66012;SDS011;52783;50.502;8.190;2023-03-23T11:03:58;3.95;;;1.27;;
66012;SDS011;52783;50.502;8.190;2023-03-23T11:06:29;1.95;;;1.10;;
66012;SDS011;52783;50.502;8.190;2023-03-23T11:09:01;1.73;;;1.00;;
66012;SDS011;52783;50.502;8.190;2023-03-23T11:11:39;1.48;;;0.90;;
66012;SDS011;52783;50.502;8.190;2023-03-23T11:19:26;0.60;;;0.60;;
66012;SDS011;52783;50.502;8.190;2023-03-23T11:24:30;1.75;;;0.98;;
66012;SDS011;52783;50.502;8.190;2023-03-23T11:26:58;1.95;;;1.20;;
66012;SDS011;52783;50.502;8.190;2023-03-23T11:29:25;0.77;;;0.77;;
66012;SDS011;52783;50.502;8.190;2023-03-23T11:32:02;1.48;;;0.80;;
66012;SDS011;52783;50.502;8.190;2023-03-23T11:34:40;1.98;;;1.00;;
66012;SDS011;52783;50.502;8.190;2023-03-23T11:37:29;0.98;;;0.90;;
66012;SDS011;52783;50.502;8.190;2023-03-23T11:40:22;1.10;;;1.10;;
66012;SDS011;52783;50.502;8.190;2023-03-23T11:50:22;3.17;;;1.00;;
66012;SDS011;52783;50.502;8.190;2023-03-23T11:52:58;2.60;;;1.00;;
66012;SDS011;52783;50.502;8.190;2023-03-23T11:58:13;4.18;;;0.93;;
66012;SDS011;52783;50.502;8.190;2023-03-23T12:00:53;1.63;;;1.13;;
66012;SDS011;52783;50.502;8.190;2023-03-23T12:03:21;2.92;;;1.02;;
66012;SDS011;52783;50.502;8.190;2023-03-23T12:05:55;3.80;;;1.15;;
66012;SDS011;52783;50.502;8.190;2023-03-23T12:11:10;1.17;;;1.05;;
66012;SDS011;52783;50.502;8.190;2023-03-23T12:27:56;1.35;;;0.98;;
66012;SDS011;52783;50.502;8.190;2023-03-23T12:30:31;0.90;;;0.90;;
66012;SDS011;52783;50.502;8.190;2023-03-23T12:35:59;1.48;;;0.98;;
66012;SDS011;52783;50.502;8.190;2023-03-23T12:38:59;2.25;;;0.80;;
66012;SDS011;52783;50.502;8.190;2023-03-23T12:44:27;2.63;;;1.42;;
66012;SDS011;52783;50.502;8.190;2023-03-23T12:47:07;1.48;;;1.05;;
66012;SDS011;52783;50.502;8.190;2023-03-23T12:49:55;1.35;;;1.02;;
66012;SDS011;52783;50.502;8.190;2023-03-23T12:55:15;0.70;;;0.63;;
66012;SDS011;52783;50.502;8.190;2023-03-23T12:57:50;1.35;;;1.10;;
66012;SDS011;52783;50.502;8.190;2023-03-23T13:00:30;3.45;;;0.82;;
66012;SDS011;52783;50.502;8.190;2023-03-23T13:03:10;3.70;;;1.10;;
66012;SDS011;52783;50.502;8.190;2023-03-23T13:05:46;2.72;;;1.30;;
66012;SDS011;52783;50.502;8.190;2023-03-23T13:08:24;1.45;;;0.88;;
66012;SDS011;52783;50.502;8.190;2023-03-23T13:10:56;2.25;;;0.85;;
66012;SDS011;52783;50.502;8.190;2023-03-23T13:13:39;1.95;;;0.90;;
66012;SDS011;52783;50.502;8.190;2023-03-23T13:21:51;0.85;;;0.68;;
66012;SDS011;52783;50.502;8.190;2023-03-23T13:24:39;2.55;;;0.82;;
66012;SDS011;52783;50.502;8.190;2023-03-23T13:27:11;0.88;;;0.88;;
66012;SDS011;52783;50.502;8.190;2023-03-23T13:29:43;0.70;;;0.70;;
66012;SDS011;52783;50.502;8.190;2023-03-23T13:32:12;1.25;;;0.95;;
66012;SDS011;52783;50.502;8.190;2023-03-23T13:34:41;2.10;;;0.82;;
66012;SDS011;52783;50.502;8.190;2023-03-23T13:39:52;1.42;;;0.77;;
66012;SDS011;52783;50.502;8.190;2023-03-23T13:52:59;0.40;;;0.40;;
66012;SDS011;52783;50.502;8.190;2023-03-23T14:02:58;3.38;;;0.77;;
66012;SDS011;52783;50.502;8.190;2023-03-23T14:05:50;1.60;;;0.95;;
66012;SDS011;52783;50.502;8.190;2023-03-23T14:10:55;0.60;;;0.60;;
66012;SDS011;52783;50.502;8.190;2023-03-23T14:13:31;0.70;;;0.70;;
66012;SDS011;52783;50.502;8.190;2023-03-23T14:16:12;0.90;;;0.73;;
66012;SDS011;52783;50.502;8.190;2023-03-23T14:18:58;1.48;;;1.30;;
66012;SDS011;52783;50.502;8.190;2023-03-23T14:21:33;1.55;;;0.80;;
66012;SDS011;52783;50.502;8.190;2023-03-23T14:24:12;1.40;;;0.93;;
66012;SDS011;52783;50.502;8.190;2023-03-23T14:26:41;2.72;;;0.80;;
66012;SDS011;52783;50.502;8.190;2023-03-23T14:29:09;2.20;;;0.80;;
66012;SDS011;52783;50.502;8.190;2023-03-23T14:31:36;2.28;;;0.70;;
66012;SDS011;52783;50.502;8.190;2023-03-23T14:34:04;1.33;;;0.82;;
66012;SDS011;52783;50.502;8.190;2023-03-23T14:36:38;0.60;;;0.60;;
66012;SDS011;52783;50.502;8.190;2023-03-23T14:39:26;1.13;;;0.70;;
66012;SDS011;52783;50.502;8.190;2023-03-23T14:41:52;1.95;;;0.85;;
66012;SDS011;52783;50.502;8.190;2023-03-23T14:44:27;0.63;;;0.63;;
66012;SDS011;52783;50.502;8.190;2023-03-23T14:46:55;1.88;;;0.98;;
66012;SDS011;52783;50.502;8.190;2023-03-23T14:49:29;1.15;;;1.02;;
66012;SDS011;52783;50.502;8.190;2023-03-23T14:52:01;1.35;;;0.80;;
66012;SDS011;52783;50.502;8.190;2023-03-23T14:54:32;3.53;;;0.80;;
66012;SDS011;52783;50.502;8.190;2023-03-23T14:57:02;4.07;;;1.20;;
66012;SDS011;52783;50.502;8.190;2023-03-23T14:59:35;1.88;;;0.88;;
66012;SDS011;52783;50.502;8.190;2023-03-23T15:02:01;1.25;;;0.98;;
66012;SDS011;52783;50.502;8.190;2023-03-23T15:04:26;1.95;;;0.73;;
66012;SDS011;52783;50.502;8.190;2023-03-23T15:06:56;4.88;;;0.95;;
66012;SDS011;52783;50.502;8.190;2023-03-23T15:09:26;1.15;;;0.85;;
66012;SDS011;52783;50.502;8.190;2023-03-23T15:12:02;1.90;;;1.30;;
66012;SDS011;52783;50.502;8.190;2023-03-23T15:14:30;1.45;;;0.93;;
66012;SDS011;52783;50.502;8.190;2023-03-23T15:17:17;1.80;;;0.95;;
66012;SDS011;52783;50.502;8.190;2023-03-23T15:19:53;1.80;;;1.13;;
66012;SDS011;52783;50.502;8.190;2023-03-23T15:22:27;2.60;;;1.10;;
66012;SDS011;52783;50.502;8.190;2023-03-23T15:27:53;1.30;;;1.20;;
66012;SDS011;52783;50.502;8.190;2023-03-23T15:33:05;3.05;;;1.50;;
66012;SDS011;52783;50.502;8.190;2023-03-23T15:35:36;2.70;;;1.10;;
66012;SDS011;52783;50.502;8.190;2023-03-23T15:38:06;0.93;;;0.82;;
66012;SDS011;52783;50.502;8.190;2023-03-23T15:40:43;1.00;;;1.00;;
66012;SDS011;52783;50.502;8.190;2023-03-23T15:43:18;1.42;;;1.20;;
66012;SDS011;52783;50.502;8.190;2023-03-23T15:51:18;1.42;;;0.88;;
66012;SDS011;52783;50.502;8.190;2023-03-23T15:53:45;3.35;;;1.48;;
66012;SDS011;52783;50.502;8.190;2023-03-23T15:56:11;4.30;;;1.70;;
66012;SDS011;52783;50.502;8.190;2023-03-23T15:58:38;4.25;;;1.60;;
66012;SDS011;52783;50.502;8.190;2023-03-23T16:01:06;3.47;;;1.85;;
66012;SDS011;52783;50.502;8.190;2023-03-23T16:06:11;10.75;;;2.00;;
66012;SDS011;52783;50.502;8.190;2023-03-23T16:08:38;6.63;;;2.17;;
66012;SDS011;52783;50.502;8.190;2023-03-23T16:11:05;5.35;;;1.88;;
66012;SDS011;52783;50.502;8.190;2023-03-23T16:13:33;5.30;;;1.77;;
66012;SDS011;52783;50.502;8.190;2023-03-23T16:15:58;4.35;;;2.13;;
66012;SDS011;52783;50.502;8.190;2023-03-23T16:18:24;8.85;;;3.28;;
66012;SDS011;52783;50.502;8.190;2023-03-23T16:20:50;6.57;;;2.60;;
66012;SDS011;52783;50.502;8.190;2023-03-23T16:23:15;7.10;;;2.72;;
66012;SDS011;52783;50.502;8.190;2023-03-23T16:25:41;5.28;;;2.10;;
66012;SDS011;52783;50.502;8.190;2023-03-23T16:28:10;6.80;;;2.55;;
66012;SDS011;52783;50.502;8.190;2023-03-23T16:30:37;10.13;;;2.40;;
66012;SDS011;52783;50.502;8.190;2023-03-23T16:33:03;9.80;;;2.45;;
66012;SDS011;52783;50.502;8.190;2023-03-23T16:35:29;7.60;;;3.10;;
66012;SDS011;52783;50.502;8.190;2023-03-23T16:37:58;5.03;;;2.38;;
66012;SDS011;52783;50.502;8.190;2023-03-23T16:40:24;6.35;;;2.65;;
66012;SDS011;52783;50.502;8.190;2023-03-23T16:42:51;3.80;;;2.40;;
66012;SDS011;52783;50.502;8.190;2023-03-23T16:45:18;3.78;;;1.95;;
66012;SDS011;52783;50.502;8.190;2023-03-23T16:47:43;3.78;;;1.80;;
66012;SDS011;52783;50.502;8.190;2023-03-23T16:50:10;3.05;;;1.70;;
66012;SDS011;52783;50.502;8.190;2023-03-23T16:52:39;4.22;;;1.73;;
66012;SDS011;52783;50.502;8.190;2023-03-23T16:55:06;3.15;;;1.70;;
66012;SDS011;52783;50.502;8.190;2023-03-23T16:57:32;3.03;;;1.50;;
66012;SDS011;52783;50.502;8.190;2023-03-23T17:00:01;5.45;;;1.90;;
66012;SDS011;52783;50.502;8.190;2023-03-23T17:02:33;2.60;;;1.52;;
66012;SDS011;52783;50.502;8.190;2023-03-23T17:04:59;3.72;;;1.85;;
66012;SDS011;52783;50.502;8.190;2023-03-23T17:07:26;6.07;;;1.90;;
66012;SDS011;52783;50.502;8.190;2023-03-23T17:09:52;2.08;;;1.40;;
66012;SDS011;52783;50.502;8.190;2023-03-23T17:12:18;4.57;;;2.10;;